createdAt,value
2018-05-24T00:00:25.714Z,96989.01
2018-05-24T00:02:53.926Z,96999.35
2018-05-24T00:05:22.099Z,96990.83
2018-05-24T00:07:50.335Z,96996.78
2018-05-24T00:10:18.455Z,96997.27
2018-05-24T00:12:46.633Z,96998.98
2018-05-24T00:15:15.255Z,96996.02
2018-05-24T00:17:43.434Z,96997.33
2018-05-24T00:20:11.597Z,96991.34
2018-05-24T00:22:39.747Z,96992.63
2018-05-24T00:25:07.904Z,96988.34
2018-05-24T00:27:36.207Z,96981.56
2018-05-24T00:30:05.225Z,96984.16
2018-05-24T00:32:33.381Z,96979.52
2018-05-24T00:35:01.546Z,96990.63
2018-05-24T00:37:29.759Z,96981.70
2018-05-24T00:39:57.930Z,96985.13
2018-05-24T00:42:26.083Z,96986.01
2018-05-24T00:44:54.265Z,96993.75
2018-05-24T00:47:22.414Z,96998.48
2018-05-24T00:49:50.556Z,96998.91
2018-05-24T00:52:18.714Z,96997.25
2018-05-24T00:54:46.889Z,97001.55
2018-05-24T00:57:15.048Z,97003.28
2018-05-24T00:59:43.234Z,97006.41
2018-05-24T01:02:11.392Z,97006.50
2018-05-24T01:04:39.538Z,97007.83
2018-05-24T01:07:08.324Z,97010.05
2018-05-24T01:09:36.494Z,97007.48
2018-05-24T01:12:04.636Z,97010.44
2018-05-24T01:14:32.794Z,97013.45
2018-05-24T01:17:00.944Z,97011.80
2018-05-24T01:19:29.108Z,97008.41
2018-05-24T01:21:57.277Z,97007.09
2018-05-24T01:24:38.667Z,97007.55
2018-05-24T01:27:06.825Z,97012.25
2018-05-24T01:29:35.011Z,97009.26
2018-05-24T01:32:03.149Z,97010.97
2018-05-24T01:34:31.301Z,97009.66
2018-05-24T01:37:17.787Z,97009.21
2018-05-24T01:39:45.946Z,96999.39
2018-05-24T01:42:14.147Z,97007.52
2018-05-24T01:44:42.297Z,97009.64
2018-05-24T01:47:10.716Z,97012.65
2018-05-24T01:49:38.882Z,97012.22
2018-05-24T01:52:07.068Z,97018.66
2018-05-24T01:54:35.217Z,97025.48
2018-05-24T01:57:03.378Z,97028.89
2018-05-24T01:59:31.607Z,97034.84
2018-05-24T02:02:00.553Z,97028.90
2018-05-24T02:04:28.738Z,97042.55
2018-05-24T02:06:56.887Z,97031.91
2018-05-24T02:09:25.059Z,97039.19
2018-05-24T02:11:53.207Z,97039.20
2018-05-24T02:14:21.342Z,97042.63
2018-05-24T02:16:49.517Z,97034.11
2018-05-24T02:19:17.660Z,97035.79
2018-05-24T02:21:45.823Z,97034.52
2018-05-24T02:24:14.524Z,97034.08
2018-05-24T02:26:42.689Z,97040.06
2018-05-24T02:29:10.954Z,97047.73
2018-05-24T02:31:39.029Z,97043.05
2018-05-24T02:34:08.059Z,97038.83
2018-05-24T02:36:36.748Z,97041.81
2018-05-24T02:39:05.854Z,97035.02
2018-05-24T02:41:34.024Z,97037.17
2018-05-24T02:44:02.209Z,97032.42
2018-05-24T02:46:31.085Z,97034.55
2018-05-24T02:48:59.280Z,97029.88
2018-05-24T02:51:27.430Z,97030.72
2018-05-24T02:53:55.606Z,97027.27
2018-05-24T02:56:23.786Z,97026.05
2018-05-24T02:58:51.914Z,97022.65
2018-05-24T03:01:20.116Z,97024.36
2018-05-24T03:03:48.305Z,97020.90
2018-05-24T03:06:16.480Z,97019.59
2018-05-24T03:08:44.660Z,97010.60
2018-05-24T03:11:12.825Z,97011.01
2018-05-24T03:13:41.904Z,97007.14
2018-05-24T03:16:10.291Z,97013.09
2018-05-24T03:18:38.491Z,97011.41
2018-05-24T03:21:06.762Z,97011.84
2018-05-24T03:23:34.918Z,97016.56
2018-05-24T03:26:03.070Z,97014.85
2018-05-24T03:28:32.211Z,97020.39
2018-05-24T03:31:00.368Z,97019.10
2018-05-24T03:33:28.525Z,97018.20
2018-05-24T03:35:56.698Z,97015.64
2018-05-24T03:38:24.884Z,97018.17
2018-05-24T03:40:53.034Z,97021.19
2018-05-24T03:43:21.224Z,97025.91
2018-05-24T03:45:49.363Z,97026.38
2018-05-24T03:48:17.526Z,97037.09
2018-05-24T03:50:45.736Z,97036.70
2018-05-24T03:53:13.971Z,97040.53
2018-05-24T03:55:44.032Z,97041.39
2018-05-24T03:58:13.482Z,97043.52
2018-05-24T04:00:53.459Z,97043.97
2018-05-24T04:03:33.379Z,97046.54
2018-05-24T04:06:01.814Z,97040.13
2018-05-24T04:08:29.963Z,97038.85
2018-05-24T04:10:58.127Z,97039.73
2018-05-24T04:13:26.272Z,97049.11
2018-05-24T04:15:54.475Z,97051.28
2018-05-24T04:18:22.622Z,97050.83
2018-05-24T04:20:50.880Z,97050.82
2018-05-24T04:23:19.028Z,97052.08
2018-05-24T04:25:47.175Z,97058.03
2018-05-24T04:28:15.366Z,97059.32
2018-05-24T04:30:43.524Z,97065.27
2018-05-24T04:33:11.715Z,97063.95
2018-05-24T04:35:39.876Z,97060.91
2018-05-24T04:38:09.555Z,97064.30
2018-05-24T04:40:37.718Z,97068.11
2018-05-24T04:43:05.902Z,97070.66
2018-05-24T04:45:34.061Z,97070.62
2018-05-24T04:48:03.229Z,97065.91
2018-05-24T04:50:31.520Z,97065.08
2018-05-24T04:52:59.669Z,97070.66
2018-05-24T04:55:27.845Z,97071.03
2018-05-24T04:57:56.005Z,97070.58
2018-05-24T05:00:24.439Z,97072.27
2018-05-24T05:02:52.611Z,97077.35
2018-05-24T05:05:20.786Z,97078.56
2018-05-24T05:07:48.959Z,97073.77
2018-05-24T05:10:17.129Z,97069.52
2018-05-24T05:12:45.310Z,97066.08
2018-05-24T05:15:15.872Z,97066.86
2018-05-24T05:17:44.981Z,97062.58
2018-05-24T05:20:13.138Z,97064.63
2018-05-24T05:22:41.331Z,97060.78
2018-05-24T05:25:09.593Z,97063.72
2018-05-24T05:27:37.720Z,97061.45
2018-05-24T05:30:06.233Z,97066.91
2018-05-24T05:32:34.406Z,97068.16
2018-05-24T05:35:03.633Z,97072.81
2018-05-24T05:37:31.893Z,97071.95
2018-05-24T05:40:00.074Z,97072.35
2018-05-24T05:42:28.223Z,97070.19
2018-05-24T05:44:56.492Z,97077.03
2018-05-24T05:47:24.570Z,97076.13
2018-05-24T05:49:52.745Z,97074.02
2018-05-24T05:52:21.271Z,97076.13
2018-05-24T05:54:49.439Z,97078.27
2018-05-24T05:57:17.606Z,97084.56
2018-05-24T05:59:45.781Z,97087.11
2018-05-24T06:02:13.956Z,97093.02
2018-05-24T06:04:42.119Z,97091.41
2018-05-24T06:07:10.278Z,97091.81
2018-05-24T06:09:38.511Z,97089.14
2018-05-24T06:12:10.169Z,97089.48
2018-05-24T06:14:38.351Z,97091.56
2018-05-24T06:17:06.511Z,97091.51
2018-05-24T06:19:34.707Z,97092.73
2018-05-24T06:22:02.886Z,97092.27
2018-05-24T06:24:31.062Z,97099.95
2018-05-24T06:26:59.240Z,97096.83
2018-05-24T06:29:27.436Z,97101.81
2018-05-24T06:31:55.600Z,97096.59
2018-05-24T06:34:24.781Z,97099.95
2018-05-24T06:36:54.405Z,97106.38
2018-05-24T06:39:25.599Z,97104.97
2018-05-24T06:41:53.861Z,97109.52
2018-05-24T06:44:22.024Z,97110.22
2018-05-24T06:46:50.170Z,97114.80
2018-05-24T06:49:18.370Z,97115.62
2018-05-24T06:51:46.525Z,97121.58
2018-05-24T06:54:14.705Z,97121.22
2018-05-24T06:56:42.869Z,97123.78
2018-05-24T06:59:11.075Z,97131.95
2018-05-24T07:01:39.252Z,97124.24
2018-05-24T07:04:07.418Z,97126.05
2018-05-24T07:06:35.585Z,97129.05
2018-05-24T07:09:04.502Z,97127.80
2018-05-24T07:11:32.734Z,97120.55
2018-05-24T07:14:01.301Z,97126.55
2018-05-24T07:16:29.500Z,97130.33
2018-05-24T07:18:57.656Z,97130.70
2018-05-24T07:21:25.855Z,97130.63
2018-05-24T07:23:54.029Z,97131.85
2018-05-24T07:26:22.202Z,97136.86
2018-05-24T07:28:50.363Z,97130.80
2018-05-24T07:31:18.547Z,97135.84
2018-05-24T07:33:46.703Z,97128.84
2018-05-24T07:36:14.889Z,97139.12
2018-05-24T07:38:50.028Z,97145.06
2018-05-24T07:41:18.235Z,97141.53
2018-05-24T07:43:46.397Z,97140.46
2018-05-24T07:46:14.555Z,97131.82
2018-05-24T07:48:42.736Z,97135.67
2018-05-24T07:51:10.935Z,97138.64
2018-05-24T07:53:39.125Z,97138.78
2018-05-24T07:56:07.297Z,97137.03
2018-05-24T07:58:35.466Z,97138.67
2018-05-24T08:01:03.635Z,97141.67
2018-05-24T08:03:31.837Z,97144.35
2018-05-24T08:05:59.980Z,97139.11
2018-05-24T08:08:28.861Z,97140.31
2018-05-24T08:10:57.042Z,97144.17
2018-05-24T08:13:25.232Z,97142.82
2018-05-24T08:15:55.594Z,97144.42
2018-05-24T08:18:23.761Z,97145.98
2018-05-24T08:20:51.917Z,97142.02
2018-05-24T08:23:20.093Z,97135.80
2018-05-24T08:25:48.315Z,97143.16
2018-05-24T08:28:22.938Z,97135.47
2018-05-24T08:30:51.115Z,97138.61
2018-05-24T08:33:19.302Z,97136.64
2018-05-24T08:35:47.469Z,97137.24
2018-05-24T08:38:16.312Z,97142.27
2018-05-24T08:40:44.508Z,97138.66
2018-05-24T08:43:12.661Z,97145.47
2018-05-24T08:45:40.796Z,97147.78
2018-05-24T08:48:16.880Z,97142.43
2018-05-24T08:50:45.019Z,97147.67
2018-05-24T08:53:13.204Z,97146.64
2018-05-24T08:55:41.383Z,97153.29
2018-05-24T08:58:09.556Z,97157.45
2018-05-24T09:00:37.712Z,97157.87
2018-05-24T09:03:05.897Z,97157.20
2018-05-24T09:05:34.064Z,97163.12
2018-05-24T09:08:02.229Z,97168.81
2018-05-24T09:10:30.424Z,97165.16
2018-05-24T09:12:58.951Z,97170.13
2018-05-24T09:15:27.108Z,97169.06
2018-05-24T09:17:55.288Z,97168.81
2018-05-24T09:20:23.501Z,97174.15
2018-05-24T09:22:51.675Z,97172.95
2018-05-24T09:25:19.846Z,97176.13
2018-05-24T09:27:48.036Z,97182.60
2018-05-24T09:30:17.303Z,97185.89
2018-05-24T09:32:45.467Z,97185.77
2018-05-24T09:35:13.617Z,97186.70
2018-05-24T09:37:41.813Z,97182.48
2018-05-24T09:40:09.984Z,97186.78
2018-05-24T09:42:38.139Z,97177.81
2018-05-24T09:45:06.320Z,97183.03
2018-05-24T09:47:34.503Z,97182.06
2018-05-24T09:50:02.689Z,97181.09
2018-05-24T09:52:30.870Z,97174.77
2018-05-24T09:54:59.059Z,97180.23
2018-05-24T09:57:27.217Z,97175.75
2018-05-24T09:59:55.403Z,97173.14
2018-05-24T10:02:24.607Z,97169.16
2018-05-24T10:04:52.801Z,97166.66
2018-05-24T10:07:21.913Z,97166.86
2018-05-24T10:09:50.091Z,97167.56
2018-05-24T10:12:21.586Z,97162.33
2018-05-24T10:14:49.736Z,97158.03
2018-05-24T10:17:21.180Z,97153.20
2018-05-24T10:19:49.348Z,97157.07
2018-05-24T10:22:17.537Z,97156.00
2018-05-24T10:24:45.701Z,97153.25
2018-05-24T10:27:13.895Z,97146.53
2018-05-24T10:29:42.048Z,97144.69
2018-05-24T10:32:17.081Z,97146.84
2018-05-24T10:34:45.281Z,97137.20
2018-05-24T10:37:13.443Z,97141.41
2018-05-24T10:39:41.618Z,97137.92
2018-05-24T10:42:09.793Z,97132.82
2018-05-24T10:44:37.993Z,97131.23
2018-05-24T10:47:11.047Z,97132.63
2018-05-24T10:49:39.237Z,97126.61
2018-05-24T10:52:07.366Z,97120.59
2018-05-24T10:54:36.466Z,97124.46
2018-05-24T10:57:04.630Z,97122.36
2018-05-24T10:59:32.828Z,97115.05
2018-05-24T11:02:01.006Z,97104.59
2018-05-24T11:04:29.187Z,97097.33
2018-05-24T11:06:57.397Z,97095.16
2018-05-24T11:09:25.558Z,97090.47
2018-05-24T11:11:53.759Z,97091.91
2018-05-24T11:14:24.591Z,97091.38
2018-05-24T11:16:52.766Z,97090.90
2018-05-24T11:19:20.919Z,97096.33
2018-05-24T11:21:49.089Z,97096.91
2018-05-24T11:24:17.561Z,97095.88
2018-05-24T11:26:46.687Z,97091.03
2018-05-24T11:29:14.845Z,97090.23
2018-05-24T11:31:43.130Z,97084.84
2018-05-24T11:34:11.226Z,97081.98
2018-05-24T11:36:39.388Z,97079.88
2018-05-24T11:39:11.122Z,97083.17
2018-05-24T11:41:39.307Z,97071.44
2018-05-24T11:44:07.561Z,97062.77
2018-05-24T11:49:08.873Z,97064.76
2018-05-24T11:51:37.679Z,97072.63
2018-05-24T11:54:05.901Z,97066.66
2018-05-24T11:56:34.079Z,97063.64
2018-05-24T11:59:02.255Z,97063.83
2018-05-24T12:01:30.423Z,97055.27
2018-05-24T12:03:58.592Z,97060.94
2018-05-24T12:06:26.773Z,97071.00
2018-05-24T12:08:58.631Z,97071.86
2018-05-24T12:11:26.815Z,97068.25
2018-05-24T12:13:54.975Z,97064.69
2018-05-24T12:16:23.147Z,97056.06
2018-05-24T12:18:51.335Z,97060.13
2018-05-24T12:21:19.508Z,97068.63
2018-05-24T12:23:47.709Z,97065.63
2018-05-24T12:26:15.863Z,97067.96
2018-05-24T12:28:44.067Z,97060.93
2018-05-24T12:31:12.292Z,97050.44
2018-05-24T12:33:41.613Z,97048.28
2018-05-24T12:36:12.538Z,97051.66
2018-05-24T12:38:40.882Z,97055.72
2018-05-24T12:41:09.762Z,97042.44
2018-05-24T12:43:37.912Z,97047.33
2018-05-24T12:46:06.087Z,97044.27
2018-05-24T12:48:34.269Z,97034.47
2018-05-24T12:51:02.442Z,97042.70
2018-05-24T12:53:33.753Z,97036.70
2018-05-24T12:56:01.938Z,97035.06
2018-05-24T12:58:30.110Z,97039.75
2018-05-24T13:00:58.297Z,97036.80
2018-05-24T13:03:26.468Z,97032.47
2018-05-24T13:05:54.626Z,97036.13
2018-05-24T13:08:22.811Z,97027.12
2018-05-24T13:10:50.982Z,97020.03
2018-05-24T13:13:26.134Z,97017.53
2018-05-24T13:15:54.294Z,97018.11
2018-05-24T13:18:24.812Z,97020.27
2018-05-24T13:20:52.964Z,97018.53
2018-05-24T13:23:21.144Z,97018.47
2018-05-24T13:25:49.320Z,97017.34
2018-05-24T13:28:17.487Z,97012.03
2018-05-24T13:30:47.262Z,97014.59
2018-05-24T13:33:16.788Z,97018.34
2018-05-24T13:35:44.961Z,97012.95
2018-05-24T13:38:13.144Z,97007.24
2018-05-24T13:40:41.340Z,97002.75
2018-05-24T13:43:12.714Z,97002.52
2018-05-24T13:45:42.252Z,97008.98
2018-05-24T13:48:10.408Z,96990.60
2018-05-24T13:50:38.609Z,96994.59
2018-05-24T13:55:39.647Z,96986.44
2018-05-24T13:58:07.808Z,96986.88
2018-05-24T14:00:36.699Z,96985.82
2018-05-24T14:03:04.868Z,96983.03
2018-05-24T14:05:33.078Z,96977.55
2018-05-24T14:08:01.219Z,96972.50
2018-05-24T14:10:29.375Z,96979.66
2018-05-24T14:12:58.236Z,96974.17
2018-05-24T14:15:26.712Z,96973.16
2018-05-24T14:17:54.900Z,96971.92
2018-05-24T14:20:23.062Z,96977.58
2018-05-24T14:22:51.325Z,96973.00
2018-05-24T14:25:19.477Z,96977.09
2018-05-24T14:27:47.691Z,96971.77
2018-05-24T14:30:17.114Z,96972.97
2018-05-24T14:32:45.441Z,96975.23
2018-05-24T14:35:13.628Z,96971.41
2018-05-24T14:37:41.804Z,96971.02
2018-05-24T14:40:12.622Z,96965.53
2018-05-24T14:42:40.792Z,96969.52
2018-05-24T14:45:08.970Z,96974.17
2018-05-24T14:47:39.585Z,96979.28
2018-05-24T14:50:07.774Z,96984.34
2018-05-24T14:52:35.996Z,96983.37
2018-05-24T14:55:10.087Z,96987.03
2018-05-24T14:57:38.269Z,96981.41
2018-05-24T15:00:06.407Z,96980.05
2018-05-24T15:02:34.578Z,96981.95
2018-05-24T15:05:02.895Z,96988.59
2018-05-24T15:07:31.049Z,96985.31
2018-05-24T15:09:59.327Z,96990.73
2018-05-24T15:12:27.493Z,96993.72
2018-05-24T15:14:57.451Z,96994.98
2018-05-24T15:17:25.664Z,96982.23
2018-05-24T15:19:53.813Z,96976.51
2018-05-24T15:22:33.490Z,96970.83
2018-05-24T15:25:02.963Z,96963.45
2018-05-24T15:27:31.394Z,96954.64
2018-05-24T15:29:59.492Z,96950.94
2018-05-24T15:32:28.182Z,96955.77
2018-05-24T15:34:56.920Z,96949.64
2018-05-24T15:37:25.056Z,96956.70
2018-05-24T15:39:53.477Z,96952.28
2018-05-24T15:42:21.683Z,96950.98
2018-05-24T15:44:49.836Z,96958.13
2018-05-24T15:47:17.993Z,96956.73
2018-05-24T15:49:46.116Z,96959.66
2018-05-24T15:52:14.228Z,96954.31
2018-05-24T15:54:42.366Z,96952.26
2018-05-24T15:57:10.474Z,96953.56
2018-05-24T15:59:38.611Z,96939.52
2018-05-24T16:02:06.759Z,96954.55
2018-05-24T16:04:34.863Z,96947.28
2018-05-24T16:09:37.558Z,96949.01
2018-05-24T16:12:05.728Z,96938.52
2018-05-24T16:14:33.892Z,96939.45
2018-05-24T16:17:02.040Z,96933.45
2018-05-24T16:20:11.747Z,96935.45
2018-05-24T16:22:39.899Z,96936.94
2018-05-24T16:25:08.049Z,96926.58
2018-05-24T16:27:36.196Z,96929.42
2018-05-24T16:30:04.316Z,96932.27
2018-05-24T16:32:33.427Z,96942.46
2018-05-24T16:35:01.556Z,96936.45
2018-05-24T16:37:29.749Z,96928.73
2018-05-24T16:39:57.875Z,96926.51
2018-05-24T16:42:26.045Z,96924.02
2018-05-24T16:44:54.156Z,96926.25
2018-05-24T16:47:22.277Z,96932.55
2018-05-24T16:49:50.452Z,96927.67
2018-05-24T16:52:18.555Z,96923.61
2018-05-24T16:54:46.713Z,96924.91
2018-05-24T16:57:14.840Z,96933.70
2018-05-24T16:59:42.966Z,96929.87
2018-05-24T17:02:11.096Z,96934.15
2018-05-24T17:04:39.242Z,96935.50
2018-05-24T17:07:07.388Z,96939.96
2018-05-24T17:09:35.526Z,96943.11
2018-05-24T17:12:03.638Z,96937.23
2018-05-24T17:14:32.183Z,96936.66
2018-05-24T17:17:00.323Z,96943.98
2018-05-24T17:19:28.452Z,96943.40
2018-05-24T17:21:56.611Z,96942.38
2018-05-24T17:24:24.746Z,96943.09
2018-05-24T17:26:52.890Z,96947.90
2018-05-24T17:29:21.024Z,96963.06
2018-05-24T17:36:45.672Z,96965.20
2018-05-24T17:39:17.414Z,96972.66
2018-05-24T17:41:45.592Z,96976.45
2018-05-24T17:44:13.770Z,96976.55
2018-05-24T17:46:41.960Z,96979.31
2018-05-24T17:49:10.133Z,96976.36
2018-05-24T17:51:38.307Z,96976.99
2018-05-24T17:54:09.807Z,96969.81
2018-05-24T17:56:37.968Z,96966.49
2018-05-24T17:59:06.250Z,96971.11
2018-05-24T18:01:34.447Z,96969.70
2018-05-24T18:04:02.630Z,96981.20
2018-05-24T18:06:30.797Z,96973.79
2018-05-24T18:08:59.007Z,96979.98
2018-05-24T18:11:27.181Z,96975.44
2018-05-24T18:13:55.373Z,96982.55
2018-05-24T18:16:23.524Z,96988.81
2018-05-24T18:18:52.441Z,96994.64
2018-05-24T18:21:20.615Z,96996.17
2018-05-24T18:23:48.799Z,96998.50
2018-05-24T18:26:17.964Z,96995.59
2018-05-24T18:28:46.619Z,96994.42
2018-05-24T18:31:14.779Z,96992.39
2018-05-24T18:33:42.947Z,96994.38
2018-05-24T18:36:17.979Z,97001.75
2018-05-24T18:38:46.147Z,97001.43
2018-05-24T18:41:14.304Z,97008.42
2018-05-24T18:43:42.493Z,97010.27
2018-05-24T18:46:10.684Z,97013.82
2018-05-24T18:48:38.871Z,97018.34
2018-05-24T18:51:07.931Z,97027.58
2018-05-24T18:53:37.949Z,97042.22
2018-05-24T18:56:06.187Z,97057.52
2018-05-24T18:58:34.356Z,97055.88
2018-05-24T19:01:02.655Z,97065.25
2018-05-24T19:03:30.842Z,97078.59
2018-05-24T19:05:59.047Z,97058.73
2018-05-24T19:08:27.249Z,97049.56
2018-05-24T19:10:56.016Z,97053.92
2018-05-24T19:13:25.776Z,97072.89
2018-05-24T19:15:53.961Z,97050.11
2018-05-24T19:18:22.141Z,97053.73
2018-05-24T19:20:50.561Z,97059.52
2018-05-24T19:23:18.730Z,97077.27
2018-05-24T19:25:46.927Z,97091.64
2018-05-24T19:28:15.466Z,97103.16
2018-05-24T19:30:43.650Z,97108.11
2018-05-24T19:33:11.854Z,97099.69
2018-05-24T19:35:40.091Z,97098.00
2018-05-24T19:38:08.254Z,97095.03
2018-05-24T19:40:36.442Z,97091.27
2018-05-24T19:43:04.637Z,97102.01
2018-05-24T19:45:32.823Z,97103.38
2018-05-24T19:48:00.980Z,97104.77
2018-05-24T19:50:29.154Z,97098.36
2018-05-24T19:52:57.338Z,97088.97
2018-05-24T19:55:25.486Z,97086.75
2018-05-24T19:57:53.725Z,97086.63
2018-05-24T20:00:21.884Z,97090.37
2018-05-24T20:02:50.735Z,97086.94
2018-05-24T20:05:18.887Z,97082.66
2018-05-24T20:07:47.098Z,97077.92
2018-05-24T20:10:17.806Z,97077.88
2018-05-24T20:12:45.999Z,97069.70
2018-05-24T20:15:14.168Z,97072.69
2018-05-24T20:17:42.375Z,97076.49
2018-05-24T20:20:10.605Z,97088.00
2018-05-24T20:22:38.755Z,97094.79
2018-05-24T20:25:06.941Z,97109.74
2018-05-24T20:27:35.091Z,97105.92
2018-05-24T20:30:03.394Z,97112.78
2018-05-24T20:32:31.583Z,97109.91
2018-05-24T20:34:59.765Z,97119.33
2018-05-24T20:37:27.942Z,97118.09
2018-05-24T20:39:56.086Z,97115.98
2018-05-24T20:42:24.269Z,97110.00
2018-05-24T20:44:53.988Z,97107.52
2018-05-24T20:47:24.293Z,97100.61
2018-05-24T20:49:52.502Z,97102.41
2018-05-24T20:52:20.658Z,97125.12
2018-05-24T20:54:48.840Z,97133.78
2018-05-24T20:57:17.019Z,97146.19
2018-05-24T20:59:45.197Z,97157.72
2018-05-24T21:02:13.417Z,97158.53
2018-05-24T21:04:41.589Z,97160.66
2018-05-24T21:07:10.463Z,97155.05
2018-05-24T21:09:38.572Z,97146.47
2018-05-24T21:12:06.783Z,97140.09
2018-05-24T21:14:34.935Z,97145.98
2018-05-24T21:17:03.385Z,97144.66
2018-05-24T21:19:31.573Z,97140.77
2018-05-24T21:22:00.149Z,97145.47
2018-05-24T21:24:28.349Z,97149.27
2018-05-24T21:26:56.494Z,97146.70
2018-05-24T21:29:24.682Z,97140.75
2018-05-24T21:31:52.900Z,97139.02
2018-05-24T21:34:21.107Z,97143.67
2018-05-24T21:36:49.322Z,97139.78
2018-05-24T21:39:17.491Z,97145.31
2018-05-24T21:41:45.642Z,97152.12
2018-05-24T21:44:13.844Z,97140.61
2018-05-24T21:46:42.027Z,97149.61
2018-05-24T21:49:10.359Z,97141.03
2018-05-24T21:51:38.532Z,97144.91
2018-05-24T21:54:07.052Z,97143.31
2018-05-24T21:56:35.220Z,97137.38
2018-05-24T21:59:03.403Z,97126.70
2018-05-24T22:01:31.581Z,97141.25
2018-05-24T22:03:59.746Z,97139.55
2018-05-24T22:06:27.946Z,97135.27
2018-05-24T22:08:56.106Z,97131.88
2018-05-24T22:11:24.293Z,97130.18
2018-05-24T22:13:52.762Z,97138.31
2018-05-24T22:16:21.017Z,97130.64
2018-05-24T22:18:49.164Z,97128.98
2018-05-24T22:21:17.347Z,97119.61
2018-05-24T22:23:45.511Z,97120.93
2018-05-24T22:26:15.140Z,97114.14
2018-05-24T22:28:43.312Z,97113.84
2018-05-24T22:31:14.384Z,97106.67
2018-05-24T22:33:42.604Z,97105.42
2018-05-24T22:36:10.762Z,97104.20
2018-05-24T22:38:38.945Z,97097.44
2018-05-24T22:41:07.124Z,97100.40
2018-05-24T22:43:39.272Z,97095.26
2018-05-24T22:46:07.444Z,97093.11
2018-05-24T22:48:35.625Z,97099.06
2018-05-24T22:51:03.829Z,97101.52
2018-05-24T22:53:32.007Z,97112.58
2018-05-24T22:56:01.720Z,97121.55
2018-05-24T22:58:30.585Z,97116.00
2018-05-24T23:00:58.786Z,97115.55
2018-05-24T23:03:26.981Z,97121.91
2018-05-24T23:05:55.165Z,97119.78
2018-05-24T23:08:23.335Z,97118.05
2018-05-24T23:10:51.517Z,97104.86
2018-05-24T23:13:19.685Z,97103.95
2018-05-24T23:15:47.862Z,97108.23
2018-05-24T23:18:16.020Z,97109.51
2018-05-24T23:20:44.210Z,97103.53
2018-05-24T23:23:12.367Z,97110.78
2018-05-24T23:25:40.529Z,97104.00
2018-05-24T23:28:08.717Z,97108.70
2018-05-24T23:30:36.891Z,97119.89
2018-05-24T23:33:05.071Z,97112.74
2018-05-24T23:35:33.222Z,97117.02
2018-05-24T23:38:01.400Z,97118.34
2018-05-24T23:40:29.588Z,97121.33
2018-05-24T23:42:57.837Z,97122.64
2018-05-24T23:45:25.994Z,97123.91
2018-05-24T23:47:54.235Z,97121.79
2018-05-24T23:50:22.403Z,97127.36
2018-05-24T23:52:50.591Z,97129.06
2018-05-24T23:55:18.812Z,97130.77
2018-05-24T23:57:46.970Z,97127.77
